createdAt,value
2024-03-30T00:01:11.595Z,4.40
2024-03-30T00:03:43.672Z,4.20
2024-03-30T00:06:15.167Z,3.80
2024-03-30T00:08:46.172Z,3.90
2024-03-30T00:11:16.780Z,4.30
2024-03-30T00:13:47.278Z,4.70
2024-03-30T00:16:18.724Z,4.40
2024-03-30T00:21:19.320Z,4.10
2024-03-30T00:23:50.182Z,4.20
2024-03-30T00:26:20.894Z,4.70
2024-03-30T00:28:51.626Z,4.20
2024-03-30T00:31:26.641Z,4.20
2024-03-30T00:33:58.220Z,4.40
2024-03-30T00:38:59.091Z,3.70
2024-03-30T00:41:29.660Z,4.30
2024-03-30T00:44:00.110Z,4.70
2024-03-30T00:46:31.185Z,3.90
2024-03-30T00:49:01.702Z,3.90
2024-03-30T00:51:32.958Z,3.60
2024-03-30T00:54:03.505Z,4.30
2024-03-30T00:56:33.982Z,4.20
2024-03-30T00:59:05.097Z,3.70
2024-03-30T01:01:35.791Z,4.40
2024-03-30T01:04:06.532Z,4.40
2024-03-30T01:06:37.362Z,3.70
2024-03-30T01:09:08.960Z,3.60
2024-03-30T01:11:40.322Z,3.90
2024-03-30T01:19:14.968Z,3.80
2024-03-30T01:21:46.838Z,3.90
2024-03-30T01:24:20.391Z,3.90
2024-03-30T01:26:56.567Z,4.50
2024-03-30T01:29:29.956Z,3.80
2024-03-30T01:32:01.420Z,4.00
2024-03-30T01:34:34.440Z,4.20
2024-03-30T01:37:05.084Z,4.10
2024-03-30T01:39:35.978Z,3.50
2024-03-30T01:42:06.811Z,4.40
2024-03-30T01:44:37.278Z,4.20
2024-03-30T01:47:08.695Z,3.60
2024-03-30T01:49:39.456Z,3.50
2024-03-30T01:52:10.000Z,4.00
2024-03-30T01:54:40.774Z,4.20
2024-03-30T01:57:11.638Z,3.90
2024-03-30T01:59:42.685Z,3.80
2024-03-30T02:02:15.373Z,3.50
2024-03-30T02:04:46.255Z,3.90
2024-03-30T02:07:17.451Z,4.10
2024-03-30T02:09:49.337Z,3.70
2024-03-30T02:12:20.486Z,4.00
2024-03-30T02:14:51.068Z,4.00
2024-03-30T02:17:21.638Z,3.90
2024-03-30T02:19:57.228Z,3.60
2024-03-30T02:22:28.923Z,3.60
2024-03-30T02:24:59.732Z,3.10
2024-03-30T02:27:30.828Z,4.10
2024-03-30T02:30:04.363Z,3.60
2024-03-30T02:32:34.866Z,3.90
2024-03-30T02:35:06.076Z,3.20
2024-03-30T02:37:36.689Z,3.80
2024-03-30T02:40:11.558Z,3.90
2024-03-30T02:42:42.182Z,3.90
2024-03-30T02:45:17.070Z,4.10
2024-03-30T02:47:47.600Z,3.20
2024-03-30T02:50:18.136Z,3.10
2024-03-30T02:52:48.704Z,4.20
2024-03-30T02:55:19.471Z,3.90
2024-03-30T02:57:50.071Z,3.60
2024-03-30T03:00:21.336Z,3.30
2024-03-30T03:02:52.993Z,3.70
2024-03-30T03:05:23.716Z,3.40
2024-03-30T03:07:54.250Z,3.10
2024-03-30T03:10:25.022Z,4.30
2024-03-30T03:12:55.504Z,3.30
2024-03-30T03:15:26.028Z,3.80
2024-03-30T03:17:56.532Z,4.50
2024-03-30T03:20:27.094Z,3.50
2024-03-30T03:22:57.837Z,3.90
2024-03-30T03:25:28.470Z,3.90
2024-03-30T03:27:59.101Z,3.90
2024-03-30T03:30:29.592Z,3.90
2024-03-30T03:33:01.304Z,3.60
2024-03-30T03:35:32.129Z,3.20
2024-03-30T03:38:02.799Z,3.60
2024-03-30T03:40:34.017Z,3.10
2024-03-30T03:43:04.746Z,2.90
2024-03-30T03:45:36.688Z,3.50
2024-03-30T03:48:08.699Z,3.70
2024-03-30T03:50:39.452Z,2.80
2024-03-30T03:53:10.249Z,3.80
2024-03-30T03:55:40.876Z,3.50
2024-03-30T03:58:11.513Z,4.40
2024-03-30T04:00:42.333Z,3.50
2024-03-30T04:03:12.814Z,3.40
2024-03-30T04:05:43.438Z,4.00
2024-03-30T04:08:14.058Z,3.40
2024-03-30T04:10:44.697Z,3.40
2024-03-30T04:13:15.181Z,3.60
2024-03-30T04:15:45.832Z,2.40
2024-03-30T04:18:16.306Z,3.10
2024-03-30T04:20:57.214Z,3.50
2024-03-30T04:23:32.343Z,3.10
2024-03-30T04:26:11.300Z,2.80
2024-03-30T04:28:42.455Z,2.90
2024-03-30T04:31:13.343Z,3.10
2024-03-30T04:33:43.924Z,2.70
2024-03-30T04:36:15.215Z,3.00
2024-03-30T04:38:45.767Z,3.30
2024-03-30T04:41:16.339Z,3.10
2024-03-30T04:43:47.036Z,2.90
2024-03-30T04:46:17.857Z,2.90
2024-03-30T04:48:48.892Z,3.00
2024-03-30T04:51:19.504Z,2.60
2024-03-30T04:53:49.946Z,2.80
2024-03-30T04:56:22.000Z,2.60
2024-03-30T04:58:52.496Z,2.80
2024-03-30T05:01:23.167Z,2.80
2024-03-30T05:03:53.679Z,2.80
2024-03-30T05:06:24.204Z,2.60
2024-03-30T05:08:54.750Z,2.40
2024-03-30T05:11:25.304Z,2.50
2024-03-30T05:13:56.139Z,3.00
2024-03-30T05:16:26.748Z,4.40
2024-03-30T05:18:59.516Z,2.80
2024-03-30T05:21:29.977Z,3.10
2024-03-30T05:24:00.769Z,2.40
2024-03-30T05:26:31.420Z,2.80
2024-03-30T05:29:01.948Z,3.30
2024-03-30T05:31:32.579Z,2.90
2024-03-30T05:34:02.977Z,3.10
2024-03-30T05:36:33.848Z,3.10
2024-03-30T05:39:04.419Z,3.00
2024-03-30T05:41:35.048Z,3.00
2024-03-30T05:44:06.291Z,3.00
2024-03-30T05:46:36.889Z,2.50
2024-03-30T05:49:07.336Z,2.80
2024-03-30T05:51:37.957Z,2.70
2024-03-30T05:54:08.695Z,2.90
2024-03-30T05:56:39.320Z,3.40
2024-03-30T05:59:09.827Z,2.70
2024-03-30T06:01:40.482Z,2.90
2024-03-30T06:04:11.000Z,8.00
2024-03-30T06:06:41.558Z,3.50
2024-03-30T06:09:12.116Z,3.20
2024-03-30T06:11:43.730Z,2.70
2024-03-30T06:14:14.364Z,3.30
2024-03-30T06:16:46.162Z,2.50
2024-03-30T06:19:16.716Z,2.90
2024-03-30T06:21:47.292Z,2.70
2024-03-30T06:24:17.938Z,3.00
2024-03-30T06:26:48.558Z,2.60
2024-03-30T06:29:19.187Z,2.70
2024-03-30T06:31:50.022Z,3.10
2024-03-30T06:34:20.864Z,3.50
2024-03-30T06:39:20.388Z,2.80
2024-03-30T06:42:08.472Z,3.10
2024-03-30T06:44:39.147Z,5.70
2024-03-30T06:47:09.824Z,3.00
2024-03-30T06:52:09.715Z,5.40
2024-03-30T06:54:40.256Z,2.90
2024-03-30T06:57:10.900Z,3.00
2024-03-30T07:02:10.589Z,2.90
2024-03-30T07:04:41.136Z,2.60
2024-03-30T07:07:14.268Z,2.80
2024-03-30T07:09:46.300Z,2.90
2024-03-30T07:12:16.761Z,2.90
2024-03-30T07:14:47.248Z,2.40
2024-03-30T07:17:17.713Z,3.00
2024-03-30T07:19:48.466Z,2.60
2024-03-30T07:22:18.969Z,2.40
2024-03-30T07:27:20.535Z,2.60
2024-03-30T07:29:53.363Z,3.00
2024-03-30T07:32:23.889Z,3.20
2024-03-30T07:34:54.402Z,2.40
2024-03-30T07:39:54.592Z,3.00
2024-03-30T07:42:25.108Z,3.30
2024-03-30T07:47:24.891Z,3.40
2024-03-30T07:49:55.958Z,3.20
2024-03-30T07:52:26.520Z,3.00
2024-03-30T07:54:57.091Z,2.70
2024-03-30T07:57:27.989Z,3.00
2024-03-30T07:59:58.397Z,3.20
2024-03-30T08:04:57.748Z,3.20
2024-03-30T08:09:57.165Z,2.60
2024-03-30T08:14:56.754Z,2.60
2024-03-30T08:17:27.328Z,3.00
2024-03-30T08:19:57.794Z,2.90
2024-03-30T08:22:28.338Z,2.80
2024-03-30T08:24:58.807Z,2.80
2024-03-30T08:29:58.655Z,3.00
2024-03-30T08:32:29.173Z,3.10
2024-03-30T08:37:28.703Z,2.70
2024-03-30T08:42:28.116Z,2.70
2024-03-30T08:44:58.736Z,2.60
2024-03-30T08:47:29.308Z,3.00
2024-03-30T08:52:29.101Z,2.40
2024-03-30T08:54:59.627Z,2.80
2024-03-30T08:57:30.116Z,2.50
2024-03-30T09:00:00.691Z,2.90
2024-03-30T09:05:04.176Z,2.40
2024-03-30T09:07:35.110Z,5.00
2024-03-30T09:10:06.561Z,3.10
2024-03-30T09:12:37.105Z,2.40
2024-03-30T09:15:08.361Z,2.70
2024-03-30T09:17:38.837Z,2.90
2024-03-30T09:20:11.480Z,2.90
2024-03-30T09:22:43.436Z,2.80
2024-03-30T09:25:15.834Z,2.30
2024-03-30T09:27:46.286Z,2.20
2024-03-30T09:30:16.751Z,2.30
2024-03-30T09:32:48.375Z,2.50
2024-03-30T09:35:19.107Z,2.90
2024-03-30T09:40:19.541Z,2.00
2024-03-30T09:42:50.777Z,2.20
2024-03-30T09:45:21.595Z,1.60
2024-03-30T09:50:24.909Z,2.30
2024-03-30T09:52:56.405Z,2.40
2024-03-30T09:55:28.523Z,2.20
2024-03-30T09:57:59.659Z,2.00
2024-03-30T10:00:31.295Z,2.00
2024-03-30T10:03:01.904Z,2.50
2024-03-30T10:05:38.496Z,1.50
2024-03-30T10:08:18.570Z,1.80
2024-03-30T10:10:55.345Z,1.90
2024-03-30T10:13:31.693Z,2.00
2024-03-30T10:16:02.256Z,1.60
2024-03-30T10:18:32.742Z,1.80
2024-03-30T10:21:06.023Z,1.60
2024-03-30T10:23:38.717Z,1.60
2024-03-30T10:26:18.540Z,2.20
2024-03-30T10:28:49.033Z,2.30
2024-03-30T10:31:21.663Z,1.40
2024-03-30T10:33:53.676Z,1.80
2024-03-30T10:36:24.811Z,1.70
2024-03-30T10:38:55.499Z,1.80
2024-03-30T10:41:29.148Z,1.70
2024-03-30T10:43:59.801Z,1.50
2024-03-30T10:46:30.996Z,1.50
2024-03-30T10:49:01.542Z,3.00
2024-03-30T10:51:32.124Z,1.70
2024-03-30T10:54:11.040Z,1.70
2024-03-30T10:56:47.307Z,1.80
2024-03-30T10:59:19.866Z,1.80
2024-03-30T11:01:52.445Z,2.00
2024-03-30T11:04:23.385Z,1.70
2024-03-30T11:06:54.256Z,1.90
2024-03-30T11:09:26.548Z,1.60
2024-03-30T11:11:57.065Z,1.90
2024-03-30T11:14:27.678Z,1.40
2024-03-30T11:17:01.974Z,1.30
2024-03-30T11:19:38.905Z,1.10
2024-03-30T11:22:18.109Z,1.70
2024-03-30T11:24:56.162Z,1.80
2024-03-30T11:27:33.244Z,1.40
2024-03-30T11:30:12.101Z,1.70
2024-03-30T11:32:51.387Z,1.40
2024-03-30T11:35:29.858Z,1.60
2024-03-30T11:38:04.751Z,1.10
2024-03-30T11:40:38.972Z,1.50
2024-03-30T11:43:23.785Z,2.40
2024-03-30T11:45:55.249Z,1.90
2024-03-30T11:48:26.372Z,1.70
2024-03-30T11:50:57.513Z,1.50
2024-03-30T11:53:35.419Z,1.00
2024-03-30T11:56:06.575Z,1.70
2024-03-30T11:58:38.858Z,1.80
2024-03-30T12:01:13.404Z,1.30
2024-03-30T12:03:44.481Z,1.30
2024-03-30T12:06:22.894Z,1.20
2024-03-30T12:08:54.609Z,1.30
2024-03-30T12:11:25.172Z,1.30
2024-03-30T12:13:58.076Z,1.90
2024-03-30T12:16:28.792Z,1.40
2024-03-30T12:18:59.753Z,1.40
2024-03-30T12:21:31.387Z,1.40
2024-03-30T12:24:02.429Z,1.10
2024-03-30T12:26:33.305Z,1.30
2024-03-30T12:31:35.148Z,1.20
2024-03-30T12:34:05.687Z,1.10
2024-03-30T12:36:36.407Z,3.30
2024-03-30T12:39:08.764Z,1.40
2024-03-30T12:41:39.997Z,2.00
2024-03-30T12:44:10.530Z,1.00
2024-03-30T12:46:41.213Z,1.20
2024-03-30T12:49:12.226Z,1.30
2024-03-30T12:51:43.841Z,1.40
2024-03-30T12:54:14.405Z,1.50
2024-03-30T12:56:45.687Z,1.40
2024-03-30T12:59:17.307Z,1.00
2024-03-30T13:01:48.132Z,1.50
2024-03-30T13:04:19.527Z,1.40
2024-03-30T13:06:56.469Z,1.70
2024-03-30T13:09:29.651Z,1.30
2024-03-30T13:12:02.751Z,1.30
2024-03-30T13:14:37.092Z,1.40
2024-03-30T13:17:09.344Z,1.60
2024-03-30T13:19:40.532Z,1.50
2024-03-30T13:22:13.724Z,1.60
2024-03-30T13:24:44.419Z,1.70
2024-03-30T13:27:15.021Z,1.50
2024-03-30T13:29:45.657Z,1.50
2024-03-30T13:32:16.146Z,1.50
2024-03-30T13:34:46.614Z,2.00
2024-03-30T13:37:17.532Z,2.20
2024-03-30T13:42:17.041Z,1.60
2024-03-30T13:44:47.464Z,1.80
2024-03-30T13:47:19.841Z,1.90
2024-03-30T13:49:52.553Z,1.30
2024-03-30T13:52:24.595Z,1.50
2024-03-30T13:54:55.057Z,1.50
2024-03-30T13:57:25.711Z,1.80
2024-03-30T13:59:56.504Z,1.10
2024-03-30T14:02:29.267Z,1.40
2024-03-30T14:04:59.786Z,1.60
2024-03-30T14:07:30.242Z,1.30
2024-03-30T14:10:00.782Z,1.50
2024-03-30T14:12:31.206Z,1.60
2024-03-30T14:15:04.065Z,1.30
2024-03-30T14:17:39.833Z,1.60
2024-03-30T14:20:12.442Z,1.60
2024-03-30T14:22:43.468Z,1.50
2024-03-30T14:25:14.008Z,1.50
2024-03-30T14:27:44.481Z,1.70
2024-03-30T14:30:15.145Z,1.70
2024-03-30T14:32:45.752Z,2.10
2024-03-30T14:35:19.673Z,1.60
2024-03-30T14:37:50.285Z,2.30
2024-03-30T14:40:20.927Z,1.20
2024-03-30T14:42:52.274Z,2.10
2024-03-30T14:45:22.745Z,1.90
2024-03-30T14:47:53.203Z,1.80
2024-03-30T14:50:23.613Z,1.80
2024-03-30T14:52:55.520Z,1.20
2024-03-30T14:55:25.964Z,1.50
2024-03-30T14:57:56.455Z,1.50
2024-03-30T15:00:26.989Z,2.60
2024-03-30T15:02:57.495Z,1.70
2024-03-30T15:05:28.010Z,1.40
2024-03-30T15:07:58.446Z,1.40
2024-03-30T15:10:29.843Z,1.40
2024-03-30T15:13:02.233Z,1.50
2024-03-30T15:15:33.018Z,1.20
2024-03-30T15:18:05.518Z,1.20
2024-03-30T15:20:37.401Z,1.40
2024-03-30T15:23:09.235Z,3.80
2024-03-30T15:25:39.710Z,2.00
2024-03-30T15:28:10.302Z,1.50
2024-03-30T15:30:58.459Z,1.90
2024-03-30T15:33:29.655Z,1.70
2024-03-30T15:36:03.316Z,1.70
2024-03-30T15:38:33.847Z,1.50
2024-03-30T15:41:04.742Z,1.70
2024-03-30T15:43:35.353Z,2.00
2024-03-30T15:46:06.136Z,2.00
2024-03-30T15:48:36.752Z,1.60
2024-03-30T15:51:09.253Z,1.90
2024-03-30T15:53:39.649Z,1.40
2024-03-30T15:56:11.345Z,1.90
2024-03-30T15:58:42.080Z,1.80
2024-03-30T16:01:12.686Z,1.50
2024-03-30T16:03:44.194Z,2.00
2024-03-30T16:06:14.759Z,1.90
2024-03-30T16:08:45.230Z,2.20
2024-03-30T16:11:15.754Z,2.00
2024-03-30T16:13:46.461Z,1.40
2024-03-30T16:16:18.058Z,2.10
2024-03-30T16:18:48.523Z,2.70
2024-03-30T16:21:19.160Z,2.50
2024-03-30T16:23:49.705Z,2.40
2024-03-30T16:26:20.827Z,2.10
2024-03-30T16:28:51.450Z,2.80
2024-03-30T16:31:27.761Z,2.10
2024-03-30T16:34:05.925Z,2.10
2024-03-30T16:36:36.391Z,1.70
2024-03-30T16:39:17.787Z,2.40
2024-03-30T16:41:52.069Z,2.70
2024-03-30T16:44:30.004Z,2.50
2024-03-30T16:47:02.996Z,3.10
2024-03-30T16:49:33.495Z,2.90
2024-03-30T16:52:04.125Z,2.00
2024-03-30T16:54:35.671Z,2.60
2024-03-30T16:57:07.967Z,2.90
2024-03-30T16:59:38.456Z,1.90
2024-03-30T17:02:10.999Z,2.80
2024-03-30T17:04:41.474Z,2.00
2024-03-30T17:07:11.915Z,2.90
2024-03-30T17:09:42.356Z,2.60
2024-03-30T17:12:12.862Z,2.50
2024-03-30T17:14:45.260Z,1.70
2024-03-30T17:17:17.189Z,2.70
2024-03-30T17:19:51.684Z,3.40
2024-03-30T17:22:23.339Z,3.20
2024-03-30T17:24:54.081Z,3.40
2024-03-30T17:27:24.580Z,2.40
2024-03-30T17:29:55.392Z,3.10
2024-03-30T17:32:25.869Z,3.50
2024-03-30T17:35:03.800Z,3.90
2024-03-30T17:37:34.310Z,3.30
2024-03-30T17:40:05.001Z,3.00
2024-03-30T17:42:35.540Z,3.30
2024-03-30T17:45:07.020Z,3.10
2024-03-30T17:47:37.453Z,2.80
2024-03-30T17:50:09.404Z,3.90
2024-03-30T17:52:39.887Z,3.90
2024-03-30T17:55:10.682Z,4.30
2024-03-30T17:57:41.086Z,3.20
2024-03-30T18:00:13.129Z,3.50
2024-03-30T18:02:49.682Z,3.60
2024-03-30T18:05:20.202Z,3.60
2024-03-30T18:07:50.814Z,3.70
2024-03-30T18:10:21.382Z,3.10
2024-03-30T18:12:51.832Z,4.20
2024-03-30T18:15:25.584Z,3.80
2024-03-30T18:17:55.996Z,4.90
2024-03-30T18:20:26.473Z,3.00
2024-03-30T18:22:57.110Z,4.70
2024-03-30T18:25:35.452Z,4.20
2024-03-30T18:28:07.916Z,4.00
2024-03-30T18:30:38.861Z,4.40
2024-03-30T18:33:13.136Z,5.10
2024-03-30T18:35:44.784Z,4.70
2024-03-30T18:38:15.289Z,4.00
2024-03-30T18:40:46.066Z,4.80
2024-03-30T18:43:16.532Z,4.00
2024-03-30T18:45:47.651Z,4.90
2024-03-30T18:50:50.542Z,4.00
2024-03-30T18:53:21.119Z,4.50
2024-03-30T18:55:51.586Z,5.40
2024-03-30T18:58:22.084Z,4.90
2024-03-30T19:00:52.529Z,3.80
2024-03-30T19:03:23.038Z,4.60
2024-03-30T19:05:54.012Z,4.40
2024-03-30T19:08:24.496Z,4.70
2024-03-30T19:10:54.916Z,3.90
2024-03-30T19:13:25.495Z,5.80
2024-03-30T19:15:59.521Z,4.70
2024-03-30T19:18:29.983Z,4.20
2024-03-30T19:21:04.074Z,3.80
2024-03-30T19:23:35.499Z,4.60
2024-03-30T19:26:06.327Z,4.00
2024-03-30T19:28:36.756Z,5.10
2024-03-30T19:31:08.501Z,3.50
2024-03-30T19:33:39.817Z,5.20
2024-03-30T19:36:10.608Z,4.90
2024-03-30T19:38:41.192Z,4.80
2024-03-30T19:41:12.809Z,4.40
2024-03-30T19:43:45.023Z,4.80
2024-03-30T19:46:18.077Z,5.90
2024-03-30T19:48:48.498Z,6.30
2024-03-30T19:51:18.939Z,5.00
2024-03-30T19:53:49.376Z,5.30
2024-03-30T19:56:20.077Z,4.40
2024-03-30T19:58:50.595Z,4.40
2024-03-30T20:01:22.918Z,4.60
2024-03-30T20:03:53.582Z,5.50
2024-03-30T20:06:24.462Z,4.90
2024-03-30T20:08:54.936Z,5.40
2024-03-30T20:11:25.531Z,4.40
2024-03-30T20:13:56.014Z,5.10
2024-03-30T20:16:27.223Z,4.30
2024-03-30T20:19:00.646Z,5.10
2024-03-30T20:21:31.379Z,5.80
2024-03-30T20:24:01.860Z,5.00
2024-03-30T20:26:32.387Z,4.70
2024-03-30T20:29:03.371Z,4.70
2024-03-30T20:31:33.864Z,7.00
2024-03-30T20:34:04.286Z,4.40
2024-03-30T20:36:35.735Z,6.00
2024-03-30T20:39:07.943Z,5.70
2024-03-30T20:41:38.785Z,6.20
2024-03-30T20:44:09.666Z,4.50
2024-03-30T20:46:40.124Z,6.50
2024-03-30T20:49:11.523Z,4.80
2024-03-30T20:51:42.003Z,5.60
2024-03-30T20:54:12.465Z,6.20
2024-03-30T20:56:43.772Z,6.60
2024-03-30T20:59:14.833Z,6.30
2024-03-30T21:01:46.147Z,6.10
2024-03-30T21:04:17.795Z,6.70
2024-03-30T21:06:48.237Z,8.00
2024-03-30T21:09:18.748Z,5.30
2024-03-30T21:11:49.380Z,6.90
2024-03-30T21:14:19.982Z,6.70
2024-03-30T21:16:50.971Z,5.60
2024-03-30T21:19:21.561Z,5.10
2024-03-30T21:21:53.171Z,6.20
2024-03-30T21:24:25.571Z,5.50
2024-03-30T21:26:56.063Z,5.90
2024-03-30T21:29:26.517Z,5.90
2024-03-30T21:31:56.952Z,6.10
2024-03-30T21:34:27.476Z,6.00
2024-03-30T21:36:57.891Z,6.00
2024-03-30T21:39:28.747Z,5.10
2024-03-30T21:41:59.913Z,4.80
2024-03-30T21:44:31.221Z,7.40
2024-03-30T21:47:01.692Z,5.20
2024-03-30T21:49:32.112Z,5.50
2024-03-30T21:52:02.645Z,4.90
2024-03-30T21:54:33.909Z,4.80
2024-03-30T21:57:05.763Z,5.30
2024-03-30T21:59:36.617Z,5.80
2024-03-30T22:02:07.228Z,6.40
2024-03-30T22:04:37.706Z,6.20
2024-03-30T22:07:09.138Z,5.60
2024-03-30T22:09:39.592Z,6.10
2024-03-30T22:12:10.475Z,6.00
2024-03-30T22:14:40.890Z,5.80
2024-03-30T22:17:11.433Z,6.60
2024-03-30T22:19:41.890Z,4.60
2024-03-30T22:22:12.320Z,4.10
2024-03-30T22:24:42.784Z,6.80
2024-03-30T22:27:13.253Z,6.80
2024-03-30T22:29:43.669Z,4.30
2024-03-30T22:32:14.181Z,5.10
2024-03-30T22:34:44.680Z,8.10
2024-03-30T22:37:15.127Z,4.50
2024-03-30T22:39:49.336Z,7.10
2024-03-30T22:42:19.800Z,4.80
2024-03-30T22:44:51.703Z,6.20
2024-03-30T22:47:22.232Z,5.30
2024-03-30T22:49:52.961Z,6.90
2024-03-30T22:52:23.428Z,4.90
2024-03-30T22:54:54.139Z,5.90
2024-03-30T22:57:24.646Z,6.10
2024-03-30T22:59:55.152Z,5.40
2024-03-30T23:02:25.621Z,5.30
2024-03-30T23:04:57.813Z,5.30
2024-03-30T23:07:28.354Z,4.40
2024-03-30T23:09:58.828Z,5.10
2024-03-30T23:12:29.446Z,5.70
2024-03-30T23:14:59.974Z,4.30
2024-03-30T23:17:30.838Z,4.60
2024-03-30T23:20:01.379Z,5.60
2024-03-30T23:22:31.913Z,5.00
2024-03-30T23:25:02.418Z,4.80
2024-03-30T23:27:32.910Z,6.20
2024-03-30T23:30:03.661Z,5.40
2024-03-30T23:32:34.107Z,5.10
2024-03-30T23:35:04.664Z,5.30
2024-03-30T23:37:35.143Z,4.50
2024-03-30T23:40:06.301Z,4.90
2024-03-30T23:45:08.222Z,5.90
2024-03-30T23:47:38.727Z,5.70
2024-03-30T23:50:09.878Z,4.70
2024-03-30T23:55:10.035Z,4.80
2024-03-30T23:57:41.237Z,4.70
